sensor_id;sensor_type;location;lat;lon;timestamp;temperature;humidity
83019;DHT22;72834;40.104;18.336;2023-12-28T00:01:40;9.40;99.90
83019;DHT22;72834;40.104;18.336;2023-12-28T00:04:07;9.30;99.90
83019;DHT22;72834;40.104;18.336;2023-12-28T00:06:33;9.40;99.90
83019;DHT22;72834;40.104;18.336;2023-12-28T00:09:00;9.40;99.90
83019;DHT22;72834;40.104;18.336;2023-12-28T00:11:27;9.30;99.90
83019;DHT22;72834;40.104;18.336;2023-12-28T00:13:53;9.30;99.90
83019;DHT22;72834;40.104;18.336;2023-12-28T00:16:19;9.30;99.90
83019;DHT22;72834;40.104;18.336;2023-12-28T00:18:46;9.40;99.90
83019;DHT22;72834;40.104;18.336;2023-12-28T00:21:12;9.30;99.90
83019;DHT22;72834;40.104;18.336;2023-12-28T00:23:39;9.20;99.90
83019;DHT22;72834;40.104;18.336;2023-12-28T00:26:05;9.10;99.90
83019;DHT22;72834;40.104;18.336;2023-12-28T00:28:32;9.10;99.90
83019;DHT22;72834;40.104;18.336;2023-12-28T00:30:58;9.10;99.90
83019;DHT22;72834;40.104;18.336;2023-12-28T00:33:25;9.10;99.90
83019;DHT22;72834;40.104;18.336;2023-12-28T00:35:51;9.10;99.90
83019;DHT22;72834;40.104;18.336;2023-12-28T00:38:18;9.00;99.90
83019;DHT22;72834;40.104;18.336;2023-12-28T00:40:44;9.10;99.90
83019;DHT22;72834;40.104;18.336;2023-12-28T00:43:11;9.10;99.90
83019;DHT22;72834;40.104;18.336;2023-12-28T00:45:37;9.10;99.90
83019;DHT22;72834;40.104;18.336;2023-12-28T00:48:04;9.10;99.90
83019;DHT22;72834;40.104;18.336;2023-12-28T00:50:30;9.10;99.90
83019;DHT22;72834;40.104;18.336;2023-12-28T00:52:58;9.10;99.90
83019;DHT22;72834;40.104;18.336;2023-12-28T00:55:24;9.20;99.90
83019;DHT22;72834;40.104;18.336;2023-12-28T00:57:51;9.10;99.90
83019;DHT22;72834;40.104;18.336;2023-12-28T01:00:18;9.00;99.90
83019;DHT22;72834;40.104;18.336;2023-12-28T01:02:44;9.00;99.90
83019;DHT22;72834;40.104;18.336;2023-12-28T01:05:13;9.10;99.90
83019;DHT22;72834;40.104;18.336;2023-12-28T01:07:41;9.20;99.90
83019;DHT22;72834;40.104;18.336;2023-12-28T01:10:08;9.10;99.90
83019;DHT22;72834;40.104;18.336;2023-12-28T01:12:34;9.20;99.90
83019;DHT22;72834;40.104;18.336;2023-12-28T01:15:01;9.20;99.90
83019;DHT22;72834;40.104;18.336;2023-12-28T01:17:28;9.20;99.90
83019;DHT22;72834;40.104;18.336;2023-12-28T01:19:54;9.20;99.90
83019;DHT22;72834;40.104;18.336;2023-12-28T01:22:20;9.20;99.90
83019;DHT22;72834;40.104;18.336;2023-12-28T01:24:47;9.20;99.90
83019;DHT22;72834;40.104;18.336;2023-12-28T01:27:15;9.20;99.90
83019;DHT22;72834;40.104;18.336;2023-12-28T01:29:42;9.20;99.90
83019;DHT22;72834;40.104;18.336;2023-12-28T01:32:09;9.20;99.90
83019;DHT22;72834;40.104;18.336;2023-12-28T01:34:37;9.20;99.90
83019;DHT22;72834;40.104;18.336;2023-12-28T01:37:04;9.00;99.90
83019;DHT22;72834;40.104;18.336;2023-12-28T01:39:31;9.00;99.90
83019;DHT22;72834;40.104;18.336;2023-12-28T01:41:58;9.10;99.90
83019;DHT22;72834;40.104;18.336;2023-12-28T01:44:25;9.00;99.90
83019;DHT22;72834;40.104;18.336;2023-12-28T01:46:53;9.10;99.90
83019;DHT22;72834;40.104;18.336;2023-12-28T01:49:19;9.10;99.90
83019;DHT22;72834;40.104;18.336;2023-12-28T01:51:47;9.20;99.90
83019;DHT22;72834;40.104;18.336;2023-12-28T01:54:13;9.20;99.90
83019;DHT22;72834;40.104;18.336;2023-12-28T01:56:40;9.10;99.90
83019;DHT22;72834;40.104;18.336;2023-12-28T01:59:07;9.20;99.90
83019;DHT22;72834;40.104;18.336;2023-12-28T02:01:33;9.20;99.90
83019;DHT22;72834;40.104;18.336;2023-12-28T02:04:00;9.30;99.90
83019;DHT22;72834;40.104;18.336;2023-12-28T02:06:27;9.20;99.90
83019;DHT22;72834;40.104;18.336;2023-12-28T02:08:54;9.20;99.90
83019;DHT22;72834;40.104;18.336;2023-12-28T02:11:21;9.20;99.90
83019;DHT22;72834;40.104;18.336;2023-12-28T02:13:47;9.20;99.90
83019;DHT22;72834;40.104;18.336;2023-12-28T02:16:33;9.20;99.90
83019;DHT22;72834;40.104;18.336;2023-12-28T02:19:32;9.20;99.90
83019;DHT22;72834;40.104;18.336;2023-12-28T02:22:02;9.20;99.90
83019;DHT22;72834;40.104;18.336;2023-12-28T02:24:29;9.20;99.90
83019;DHT22;72834;40.104;18.336;2023-12-28T02:26:56;9.10;99.90
83019;DHT22;72834;40.104;18.336;2023-12-28T02:29:23;9.10;99.90
83019;DHT22;72834;40.104;18.336;2023-12-28T02:31:58;9.10;99.90
83019;DHT22;72834;40.104;18.336;2023-12-28T02:34:34;9.10;99.90
83019;DHT22;72834;40.104;18.336;2023-12-28T02:37:01;9.10;99.90
83019;DHT22;72834;40.104;18.336;2023-12-28T02:39:29;9.10;99.90
83019;DHT22;72834;40.104;18.336;2023-12-28T02:41:58;9.10;99.90
83019;DHT22;72834;40.104;18.336;2023-12-28T02:44:24;9.10;99.90
83019;DHT22;72834;40.104;18.336;2023-12-28T02:46:51;9.10;99.90
83019;DHT22;72834;40.104;18.336;2023-12-28T02:49:17;9.10;99.90
83019;DHT22;72834;40.104;18.336;2023-12-28T02:51:44;9.10;99.90
83019;DHT22;72834;40.104;18.336;2023-12-28T02:54:11;9.20;99.90
83019;DHT22;72834;40.104;18.336;2023-12-28T02:56:40;9.20;99.90
83019;DHT22;72834;40.104;18.336;2023-12-28T02:59:07;9.10;99.90
83019;DHT22;72834;40.104;18.336;2023-12-28T03:01:33;9.10;99.90
83019;DHT22;72834;40.104;18.336;2023-12-28T03:04:00;9.20;99.90
83019;DHT22;72834;40.104;18.336;2023-12-28T03:06:27;9.20;99.90
83019;DHT22;72834;40.104;18.336;2023-12-28T03:08:53;9.10;99.90
83019;DHT22;72834;40.104;18.336;2023-12-28T03:11:20;9.10;99.90
83019;DHT22;72834;40.104;18.336;2023-12-28T03:13:46;9.10;99.90
83019;DHT22;72834;40.104;18.336;2023-12-28T03:16:16;9.00;99.90
83019;DHT22;72834;40.104;18.336;2023-12-28T03:18:42;9.10;99.90
83019;DHT22;72834;40.104;18.336;2023-12-28T03:21:09;9.00;99.90
83019;DHT22;72834;40.104;18.336;2023-12-28T03:23:35;9.00;99.90
83019;DHT22;72834;40.104;18.336;2023-12-28T03:26:02;9.10;99.90
83019;DHT22;72834;40.104;18.336;2023-12-28T03:28:28;9.20;99.90
83019;DHT22;72834;40.104;18.336;2023-12-28T03:30:55;9.30;99.90
83019;DHT22;72834;40.104;18.336;2023-12-28T03:33:21;9.30;99.90
83019;DHT22;72834;40.104;18.336;2023-12-28T03:35:48;9.20;99.90
83019;DHT22;72834;40.104;18.336;2023-12-28T03:38:14;9.30;99.90
83019;DHT22;72834;40.104;18.336;2023-12-28T03:40:41;9.20;99.90
83019;DHT22;72834;40.104;18.336;2023-12-28T03:43:07;9.20;99.90
83019;DHT22;72834;40.104;18.336;2023-12-28T03:45:34;9.10;99.90
83019;DHT22;72834;40.104;18.336;2023-12-28T03:48:00;9.10;99.90
83019;DHT22;72834;40.104;18.336;2023-12-28T03:50:27;9.10;99.90
83019;DHT22;72834;40.104;18.336;2023-12-28T03:52:53;9.20;99.90
83019;DHT22;72834;40.104;18.336;2023-12-28T03:55:20;9.20;99.90
83019;DHT22;72834;40.104;18.336;2023-12-28T03:57:46;9.20;99.90
83019;DHT22;72834;40.104;18.336;2023-12-28T04:00:14;9.20;99.90
83019;DHT22;72834;40.104;18.336;2023-12-28T04:02:41;9.30;99.90
83019;DHT22;72834;40.104;18.336;2023-12-28T04:05:07;9.30;99.90
83019;DHT22;72834;40.104;18.336;2023-12-28T04:07:34;9.30;99.90
83019;DHT22;72834;40.104;18.336;2023-12-28T04:10:00;9.30;99.90
83019;DHT22;72834;40.104;18.336;2023-12-28T04:12:27;9.30;99.90
83019;DHT22;72834;40.104;18.336;2023-12-28T04:14:54;9.40;99.90
83019;DHT22;72834;40.104;18.336;2023-12-28T04:17:20;9.40;99.90
83019;DHT22;72834;40.104;18.336;2023-12-28T04:19:47;9.40;99.90
83019;DHT22;72834;40.104;18.336;2023-12-28T04:22:13;9.30;99.90
83019;DHT22;72834;40.104;18.336;2023-12-28T04:24:40;9.40;99.90
83019;DHT22;72834;40.104;18.336;2023-12-28T04:27:06;9.40;99.90
83019;DHT22;72834;40.104;18.336;2023-12-28T04:29:34;9.30;99.90
83019;DHT22;72834;40.104;18.336;2023-12-28T04:32:01;9.30;99.90
83019;DHT22;72834;40.104;18.336;2023-12-28T04:34:28;9.40;99.90
83019;DHT22;72834;40.104;18.336;2023-12-28T04:36:54;9.30;99.90
83019;DHT22;72834;40.104;18.336;2023-12-28T04:39:20;9.40;99.90
83019;DHT22;72834;40.104;18.336;2023-12-28T04:41:47;9.40;99.90
83019;DHT22;72834;40.104;18.336;2023-12-28T04:44:14;9.40;99.90
83019;DHT22;72834;40.104;18.336;2023-12-28T04:46:40;9.40;99.90
83019;DHT22;72834;40.104;18.336;2023-12-28T04:49:10;9.30;99.90
83019;DHT22;72834;40.104;18.336;2023-12-28T04:51:43;9.30;99.90
83019;DHT22;72834;40.104;18.336;2023-12-28T04:54:10;9.20;99.90
83019;DHT22;72834;40.104;18.336;2023-12-28T04:56:36;9.30;99.90
83019;DHT22;72834;40.104;18.336;2023-12-28T04:59:03;9.20;99.90
83019;DHT22;72834;40.104;18.336;2023-12-28T05:01:29;9.20;99.90
83019;DHT22;72834;40.104;18.336;2023-12-28T05:03:59;9.20;99.90
83019;DHT22;72834;40.104;18.336;2023-12-28T05:06:28;9.20;99.90
83019;DHT22;72834;40.104;18.336;2023-12-28T05:08:55;9.20;99.90
83019;DHT22;72834;40.104;18.336;2023-12-28T05:11:22;9.20;99.90
83019;DHT22;72834;40.104;18.336;2023-12-28T05:13:49;9.20;99.90
83019;DHT22;72834;40.104;18.336;2023-12-28T05:16:16;9.20;99.90
83019;DHT22;72834;40.104;18.336;2023-12-28T05:18:42;9.20;99.90
83019;DHT22;72834;40.104;18.336;2023-12-28T05:21:09;9.20;99.90
83019;DHT22;72834;40.104;18.336;2023-12-28T05:23:35;9.20;99.90
83019;DHT22;72834;40.104;18.336;2023-12-28T05:26:01;9.30;99.90
83019;DHT22;72834;40.104;18.336;2023-12-28T05:28:28;9.30;99.90
83019;DHT22;72834;40.104;18.336;2023-12-28T05:30:55;9.40;99.90
83019;DHT22;72834;40.104;18.336;2023-12-28T05:33:21;9.40;99.90
83019;DHT22;72834;40.104;18.336;2023-12-28T05:35:48;9.40;99.90
83019;DHT22;72834;40.104;18.336;2023-12-28T05:38:15;9.40;99.90
83019;DHT22;72834;40.104;18.336;2023-12-28T05:40:41;9.40;99.90
83019;DHT22;72834;40.104;18.336;2023-12-28T05:43:11;9.30;99.90
83019;DHT22;72834;40.104;18.336;2023-12-28T05:45:37;9.30;99.90
83019;DHT22;72834;40.104;18.336;2023-12-28T05:48:04;9.40;99.90
83019;DHT22;72834;40.104;18.336;2023-12-28T05:50:30;9.40;99.90
83019;DHT22;72834;40.104;18.336;2023-12-28T05:52:57;9.40;99.90
83019;DHT22;72834;40.104;18.336;2023-12-28T05:55:24;9.30;99.90
83019;DHT22;72834;40.104;18.336;2023-12-28T05:57:51;9.30;99.90
83019;DHT22;72834;40.104;18.336;2023-12-28T06:00:18;9.20;99.90
83019;DHT22;72834;40.104;18.336;2023-12-28T06:02:44;9.30;99.90
83019;DHT22;72834;40.104;18.336;2023-12-28T06:05:12;9.40;99.90
83019;DHT22;72834;40.104;18.336;2023-12-28T06:07:39;9.40;99.90
83019;DHT22;72834;40.104;18.336;2023-12-28T06:10:07;9.40;99.90
83019;DHT22;72834;40.104;18.336;2023-12-28T06:12:34;9.40;99.90
83019;DHT22;72834;40.104;18.336;2023-12-28T06:15:00;9.40;99.90
83019;DHT22;72834;40.104;18.336;2023-12-28T06:17:27;9.40;99.90
83019;DHT22;72834;40.104;18.336;2023-12-28T06:19:54;9.40;99.90
83019;DHT22;72834;40.104;18.336;2023-12-28T06:22:20;9.50;99.90
83019;DHT22;72834;40.104;18.336;2023-12-28T06:24:46;9.40;99.90
83019;DHT22;72834;40.104;18.336;2023-12-28T06:27:13;9.40;99.90
83019;DHT22;72834;40.104;18.336;2023-12-28T06:29:39;9.40;99.90
83019;DHT22;72834;40.104;18.336;2023-12-28T06:32:06;9.50;99.90
83019;DHT22;72834;40.104;18.336;2023-12-28T06:34:32;9.60;99.90
83019;DHT22;72834;40.104;18.336;2023-12-28T06:36:59;9.60;99.90
83019;DHT22;72834;40.104;18.336;2023-12-28T06:39:27;9.60;99.90
83019;DHT22;72834;40.104;18.336;2023-12-28T06:41:54;9.60;99.90
83019;DHT22;72834;40.104;18.336;2023-12-28T06:44:20;9.70;99.90
83019;DHT22;72834;40.104;18.336;2023-12-28T06:46:47;9.60;99.90
83019;DHT22;72834;40.104;18.336;2023-12-28T06:49:13;9.70;99.90
83019;DHT22;72834;40.104;18.336;2023-12-28T06:51:40;9.70;99.90
83019;DHT22;72834;40.104;18.336;2023-12-28T06:54:06;9.70;99.90
83019;DHT22;72834;40.104;18.336;2023-12-28T06:56:33;9.70;99.90
83019;DHT22;72834;40.104;18.336;2023-12-28T06:58:59;9.70;99.90
83019;DHT22;72834;40.104;18.336;2023-12-28T07:01:26;9.70;99.90
83019;DHT22;72834;40.104;18.336;2023-12-28T07:03:52;9.70;99.90
83019;DHT22;72834;40.104;18.336;2023-12-28T07:06:19;9.80;99.90
83019;DHT22;72834;40.104;18.336;2023-12-28T07:08:45;9.90;99.90
83019;DHT22;72834;40.104;18.336;2023-12-28T07:11:12;9.80;99.90
83019;DHT22;72834;40.104;18.336;2023-12-28T07:13:38;9.90;99.90
83019;DHT22;72834;40.104;18.336;2023-12-28T07:16:05;9.90;99.90
83019;DHT22;72834;40.104;18.336;2023-12-28T07:18:34;10.00;99.90
83019;DHT22;72834;40.104;18.336;2023-12-28T07:21:00;10.00;99.90
83019;DHT22;72834;40.104;18.336;2023-12-28T07:23:27;10.00;99.90
83019;DHT22;72834;40.104;18.336;2023-12-28T07:25:53;10.10;99.90
83019;DHT22;72834;40.104;18.336;2023-12-28T07:28:20;10.10;99.90
83019;DHT22;72834;40.104;18.336;2023-12-28T07:30:46;10.20;99.90
83019;DHT22;72834;40.104;18.336;2023-12-28T07:33:13;10.20;99.90
83019;DHT22;72834;40.104;18.336;2023-12-28T07:35:40;10.30;99.90
83019;DHT22;72834;40.104;18.336;2023-12-28T07:38:06;10.30;99.90
83019;DHT22;72834;40.104;18.336;2023-12-28T07:40:33;10.30;99.90
83019;DHT22;72834;40.104;18.336;2023-12-28T07:42:59;10.30;99.90
83019;DHT22;72834;40.104;18.336;2023-12-28T07:45:27;10.40;99.90
83019;DHT22;72834;40.104;18.336;2023-12-28T07:47:54;10.50;99.90
83019;DHT22;72834;40.104;18.336;2023-12-28T07:50:20;10.50;99.90
83019;DHT22;72834;40.104;18.336;2023-12-28T07:52:48;10.50;99.90
83019;DHT22;72834;40.104;18.336;2023-12-28T07:55:15;10.60;99.90
83019;DHT22;72834;40.104;18.336;2023-12-28T07:57:42;10.60;99.90
83019;DHT22;72834;40.104;18.336;2023-12-28T08:00:09;10.70;99.90
83019;DHT22;72834;40.104;18.336;2023-12-28T08:02:35;10.70;99.90
83019;DHT22;72834;40.104;18.336;2023-12-28T08:05:03;10.70;99.90
83019;DHT22;72834;40.104;18.336;2023-12-28T08:07:29;10.80;99.90
83019;DHT22;72834;40.104;18.336;2023-12-28T08:09:56;10.90;99.90
83019;DHT22;72834;40.104;18.336;2023-12-28T08:12:22;10.90;99.90
83019;DHT22;72834;40.104;18.336;2023-12-28T08:14:50;11.00;99.90
83019;DHT22;72834;40.104;18.336;2023-12-28T08:17:17;11.00;99.90
83019;DHT22;72834;40.104;18.336;2023-12-28T08:19:43;11.10;99.90
83019;DHT22;72834;40.104;18.336;2023-12-28T08:22:10;11.10;99.90
83019;DHT22;72834;40.104;18.336;2023-12-28T08:24:37;11.10;99.90
83019;DHT22;72834;40.104;18.336;2023-12-28T08:27:03;11.20;99.90
83019;DHT22;72834;40.104;18.336;2023-12-28T08:29:30;11.30;99.90
83019;DHT22;72834;40.104;18.336;2023-12-28T08:31:57;11.40;99.90
83019;DHT22;72834;40.104;18.336;2023-12-28T08:34:23;11.50;99.90
83019;DHT22;72834;40.104;18.336;2023-12-28T08:36:50;11.50;99.90
83019;DHT22;72834;40.104;18.336;2023-12-28T08:39:16;11.60;99.90
83019;DHT22;72834;40.104;18.336;2023-12-28T08:41:43;11.70;99.90
83019;DHT22;72834;40.104;18.336;2023-12-28T08:44:09;11.80;99.90
83019;DHT22;72834;40.104;18.336;2023-12-28T08:46:36;11.80;99.90
83019;DHT22;72834;40.104;18.336;2023-12-28T08:49:02;11.90;99.90
83019;DHT22;72834;40.104;18.336;2023-12-28T08:51:29;11.90;99.90
83019;DHT22;72834;40.104;18.336;2023-12-28T08:53:55;12.00;99.90
83019;DHT22;72834;40.104;18.336;2023-12-28T08:56:22;12.10;99.90
83019;DHT22;72834;40.104;18.336;2023-12-28T08:58:49;12.20;99.90
83019;DHT22;72834;40.104;18.336;2023-12-28T09:01:18;12.20;99.90
83019;DHT22;72834;40.104;18.336;2023-12-28T09:03:50;12.20;99.90
83019;DHT22;72834;40.104;18.336;2023-12-28T09:06:18;12.20;99.90
83019;DHT22;72834;40.104;18.336;2023-12-28T09:08:51;12.20;99.90
83019;DHT22;72834;40.104;18.336;2023-12-28T09:11:19;12.30;99.90
83019;DHT22;72834;40.104;18.336;2023-12-28T09:13:46;12.40;99.90
83019;DHT22;72834;40.104;18.336;2023-12-28T09:16:13;12.40;99.90
83019;DHT22;72834;40.104;18.336;2023-12-28T09:18:41;12.50;99.90
83019;DHT22;72834;40.104;18.336;2023-12-28T09:21:08;12.60;99.90
83019;DHT22;72834;40.104;18.336;2023-12-28T09:23:35;12.70;99.90
83019;DHT22;72834;40.104;18.336;2023-12-28T09:26:04;12.90;99.90
83019;DHT22;72834;40.104;18.336;2023-12-28T09:28:31;12.80;99.90
83019;DHT22;72834;40.104;18.336;2023-12-28T09:30:58;12.90;99.90
83019;DHT22;72834;40.104;18.336;2023-12-28T09:33:24;13.00;99.90
83019;DHT22;72834;40.104;18.336;2023-12-28T09:35:51;13.00;99.90
83019;DHT22;72834;40.104;18.336;2023-12-28T09:38:19;13.00;99.90
83019;DHT22;72834;40.104;18.336;2023-12-28T09:40:46;13.00;99.90
83019;DHT22;72834;40.104;18.336;2023-12-28T09:43:19;13.10;99.90
83019;DHT22;72834;40.104;18.336;2023-12-28T09:45:48;13.10;99.90
83019;DHT22;72834;40.104;18.336;2023-12-28T09:48:19;13.10;99.90
83019;DHT22;72834;40.104;18.336;2023-12-28T09:50:53;13.20;99.90
83019;DHT22;72834;40.104;18.336;2023-12-28T09:53:24;13.20;99.90
83019;DHT22;72834;40.104;18.336;2023-12-28T09:55:51;13.20;99.90
83019;DHT22;72834;40.104;18.336;2023-12-28T09:58:19;13.30;99.90
83019;DHT22;72834;40.104;18.336;2023-12-28T10:00:48;13.30;99.90
83019;DHT22;72834;40.104;18.336;2023-12-28T10:03:16;13.30;99.90
83019;DHT22;72834;40.104;18.336;2023-12-28T10:05:44;13.30;99.90
83019;DHT22;72834;40.104;18.336;2023-12-28T10:08:12;13.30;99.90
83019;DHT22;72834;40.104;18.336;2023-12-28T10:10:40;13.40;99.90
83019;DHT22;72834;40.104;18.336;2023-12-28T10:13:07;13.40;99.90
83019;DHT22;72834;40.104;18.336;2023-12-28T10:15:38;13.60;99.90
83019;DHT22;72834;40.104;18.336;2023-12-28T10:18:05;13.70;99.90
83019;DHT22;72834;40.104;18.336;2023-12-28T10:20:32;13.70;99.90
83019;DHT22;72834;40.104;18.336;2023-12-28T10:22:59;13.80;99.90
83019;DHT22;72834;40.104;18.336;2023-12-28T10:25:27;13.90;99.90
83019;DHT22;72834;40.104;18.336;2023-12-28T10:27:54;14.10;99.90
83019;DHT22;72834;40.104;18.336;2023-12-28T10:30:21;14.30;99.90
83019;DHT22;72834;40.104;18.336;2023-12-28T10:32:48;14.40;99.90
83019;DHT22;72834;40.104;18.336;2023-12-28T10:35:19;14.40;99.90
83019;DHT22;72834;40.104;18.336;2023-12-28T10:37:53;14.50;99.90
83019;DHT22;72834;40.104;18.336;2023-12-28T10:40:24;14.50;99.90
83019;DHT22;72834;40.104;18.336;2023-12-28T10:42:55;14.40;99.90
83019;DHT22;72834;40.104;18.336;2023-12-28T10:45:27;14.50;99.90
83019;DHT22;72834;40.104;18.336;2023-12-28T10:48:08;14.50;99.90
83019;DHT22;72834;40.104;18.336;2023-12-28T10:50:48;14.60;99.90
83019;DHT22;72834;40.104;18.336;2023-12-28T10:53:33;14.50;99.90
83019;DHT22;72834;40.104;18.336;2023-12-28T10:56:25;14.50;99.90
83019;DHT22;72834;40.104;18.336;2023-12-28T11:02:06;14.50;99.90
83019;DHT22;72834;40.104;18.336;2023-12-28T11:04:49;14.50;99.90
83019;DHT22;72834;40.104;18.336;2023-12-28T11:07:18;14.60;99.90
83019;DHT22;72834;40.104;18.336;2023-12-28T11:09:45;14.60;99.90
83019;DHT22;72834;40.104;18.336;2023-12-28T11:12:12;14.60;99.90
83019;DHT22;72834;40.104;18.336;2023-12-28T11:14:42;14.60;99.90
83019;DHT22;72834;40.104;18.336;2023-12-28T11:17:11;14.60;99.90
83019;DHT22;72834;40.104;18.336;2023-12-28T11:19:41;14.70;99.90
83019;DHT22;72834;40.104;18.336;2023-12-28T11:22:09;14.70;99.90
83019;DHT22;72834;40.104;18.336;2023-12-28T11:24:36;14.80;99.90
83019;DHT22;72834;40.104;18.336;2023-12-28T11:27:03;14.70;99.90
83019;DHT22;72834;40.104;18.336;2023-12-28T11:29:31;14.70;99.90
83019;DHT22;72834;40.104;18.336;2023-12-28T11:31:59;14.70;99.90
83019;DHT22;72834;40.104;18.336;2023-12-28T11:34:29;14.60;99.90
83019;DHT22;72834;40.104;18.336;2023-12-28T11:36:58;14.50;99.90
83019;DHT22;72834;40.104;18.336;2023-12-28T11:39:36;14.40;99.90
83019;DHT22;72834;40.104;18.336;2023-12-28T11:42:06;14.30;99.90
83019;DHT22;72834;40.104;18.336;2023-12-28T11:44:41;14.30;99.90
83019;DHT22;72834;40.104;18.336;2023-12-28T11:47:14;14.20;99.90
83019;DHT22;72834;40.104;18.336;2023-12-28T11:49:42;14.20;99.90
83019;DHT22;72834;40.104;18.336;2023-12-28T11:52:31;14.20;99.90
83019;DHT22;72834;40.104;18.336;2023-12-28T11:54:58;14.30;99.90
83019;DHT22;72834;40.104;18.336;2023-12-28T11:57:25;14.40;99.90
83019;DHT22;72834;40.104;18.336;2023-12-28T11:59:56;14.50;99.90
83019;DHT22;72834;40.104;18.336;2023-12-28T12:02:24;14.60;99.90
83019;DHT22;72834;40.104;18.336;2023-12-28T12:04:51;14.70;99.90
83019;DHT22;72834;40.104;18.336;2023-12-28T12:07:17;14.80;99.90
83019;DHT22;72834;40.104;18.336;2023-12-28T12:09:44;14.90;99.90
83019;DHT22;72834;40.104;18.336;2023-12-28T12:12:10;15.10;99.90
83019;DHT22;72834;40.104;18.336;2023-12-28T12:14:37;15.20;99.90
83019;DHT22;72834;40.104;18.336;2023-12-28T12:17:04;15.20;99.90
83019;DHT22;72834;40.104;18.336;2023-12-28T12:19:30;15.30;99.90
83019;DHT22;72834;40.104;18.336;2023-12-28T12:21:57;15.40;99.90
83019;DHT22;72834;40.104;18.336;2023-12-28T12:24:24;15.40;99.90
83019;DHT22;72834;40.104;18.336;2023-12-28T12:26:52;15.40;99.90
83019;DHT22;72834;40.104;18.336;2023-12-28T12:29:19;15.30;99.90
83019;DHT22;72834;40.104;18.336;2023-12-28T12:31:48;15.20;99.90
83019;DHT22;72834;40.104;18.336;2023-12-28T12:34:17;15.30;99.90
83019;DHT22;72834;40.104;18.336;2023-12-28T12:36:44;15.20;99.90
83019;DHT22;72834;40.104;18.336;2023-12-28T12:39:11;15.20;99.90
83019;DHT22;72834;40.104;18.336;2023-12-28T12:41:37;15.20;99.90
83019;DHT22;72834;40.104;18.336;2023-12-28T12:44:05;15.20;99.90
83019;DHT22;72834;40.104;18.336;2023-12-28T12:46:32;15.10;99.90
83019;DHT22;72834;40.104;18.336;2023-12-28T12:48:59;15.20;99.90
83019;DHT22;72834;40.104;18.336;2023-12-28T12:51:27;15.20;99.90
83019;DHT22;72834;40.104;18.336;2023-12-28T12:53:58;15.20;99.90
83019;DHT22;72834;40.104;18.336;2023-12-28T12:56:26;15.10;99.90
83019;DHT22;72834;40.104;18.336;2023-12-28T12:58:54;15.10;99.90
83019;DHT22;72834;40.104;18.336;2023-12-28T13:01:21;15.10;99.90
83019;DHT22;72834;40.104;18.336;2023-12-28T13:03:49;15.00;99.90
83019;DHT22;72834;40.104;18.336;2023-12-28T13:06:16;14.90;99.90
83019;DHT22;72834;40.104;18.336;2023-12-28T13:08:43;14.90;99.90
83019;DHT22;72834;40.104;18.336;2023-12-28T13:11:23;14.90;99.90
83019;DHT22;72834;40.104;18.336;2023-12-28T13:14:08;14.80;99.90
83019;DHT22;72834;40.104;18.336;2023-12-28T13:16:34;14.80;99.90
83019;DHT22;72834;40.104;18.336;2023-12-28T13:19:01;14.80;99.90
83019;DHT22;72834;40.104;18.336;2023-12-28T13:21:28;14.80;99.90
83019;DHT22;72834;40.104;18.336;2023-12-28T13:23:54;14.80;99.90
83019;DHT22;72834;40.104;18.336;2023-12-28T13:26:23;14.80;99.90
83019;DHT22;72834;40.104;18.336;2023-12-28T13:28:49;14.80;99.90
83019;DHT22;72834;40.104;18.336;2023-12-28T13:31:17;14.70;99.90
83019;DHT22;72834;40.104;18.336;2023-12-28T13:33:44;14.70;99.90
83019;DHT22;72834;40.104;18.336;2023-12-28T13:36:12;14.70;99.90
83019;DHT22;72834;40.104;18.336;2023-12-28T13:38:38;14.70;99.90
83019;DHT22;72834;40.104;18.336;2023-12-28T13:41:05;14.70;99.90
83019;DHT22;72834;40.104;18.336;2023-12-28T13:43:32;14.70;99.90
83019;DHT22;72834;40.104;18.336;2023-12-28T13:45:58;14.60;99.90
83019;DHT22;72834;40.104;18.336;2023-12-28T13:48:25;14.60;99.90
83019;DHT22;72834;40.104;18.336;2023-12-28T13:50:52;14.60;99.90
83019;DHT22;72834;40.104;18.336;2023-12-28T13:53:18;14.60;99.90
83019;DHT22;72834;40.104;18.336;2023-12-28T13:55:45;14.60;99.90
83019;DHT22;72834;40.104;18.336;2023-12-28T13:58:11;14.60;99.90
83019;DHT22;72834;40.104;18.336;2023-12-28T14:00:39;14.60;99.90
83019;DHT22;72834;40.104;18.336;2023-12-28T14:03:05;14.60;99.90
83019;DHT22;72834;40.104;18.336;2023-12-28T14:05:32;14.60;99.90
83019;DHT22;72834;40.104;18.336;2023-12-28T14:07:58;14.60;99.90
83019;DHT22;72834;40.104;18.336;2023-12-28T14:10:25;14.60;99.90
83019;DHT22;72834;40.104;18.336;2023-12-28T14:12:51;14.60;99.90
83019;DHT22;72834;40.104;18.336;2023-12-28T14:15:18;14.50;99.90
83019;DHT22;72834;40.104;18.336;2023-12-28T14:17:44;14.50;99.90
83019;DHT22;72834;40.104;18.336;2023-12-28T14:20:11;14.50;99.90
83019;DHT22;72834;40.104;18.336;2023-12-28T14:22:38;14.40;99.90
83019;DHT22;72834;40.104;18.336;2023-12-28T14:25:05;14.40;99.90
83019;DHT22;72834;40.104;18.336;2023-12-28T14:27:32;14.40;99.90
83019;DHT22;72834;40.104;18.336;2023-12-28T14:29:59;14.40;99.90
83019;DHT22;72834;40.104;18.336;2023-12-28T14:32:30;14.40;99.90
83019;DHT22;72834;40.104;18.336;2023-12-28T14:34:57;14.30;99.90
83019;DHT22;72834;40.104;18.336;2023-12-28T14:37:24;14.30;99.90
83019;DHT22;72834;40.104;18.336;2023-12-28T14:39:51;14.20;99.90
83019;DHT22;72834;40.104;18.336;2023-12-28T14:42:17;14.20;99.90
83019;DHT22;72834;40.104;18.336;2023-12-28T14:44:44;14.20;99.90
83019;DHT22;72834;40.104;18.336;2023-12-28T14:47:10;14.20;99.90
83019;DHT22;72834;40.104;18.336;2023-12-28T14:49:37;14.10;99.90
83019;DHT22;72834;40.104;18.336;2023-12-28T14:52:03;14.10;99.90
83019;DHT22;72834;40.104;18.336;2023-12-28T14:54:30;14.10;99.90
83019;DHT22;72834;40.104;18.336;2023-12-28T14:56:56;14.10;99.90
83019;DHT22;72834;40.104;18.336;2023-12-28T14:59:23;14.10;99.90
83019;DHT22;72834;40.104;18.336;2023-12-28T15:01:49;14.10;99.90
83019;DHT22;72834;40.104;18.336;2023-12-28T15:04:17;14.00;99.90
83019;DHT22;72834;40.104;18.336;2023-12-28T15:06:43;14.00;99.90
83019;DHT22;72834;40.104;18.336;2023-12-28T15:09:10;14.00;99.90
83019;DHT22;72834;40.104;18.336;2023-12-28T15:11:36;14.00;99.90
83019;DHT22;72834;40.104;18.336;2023-12-28T15:14:03;13.90;99.90
83019;DHT22;72834;40.104;18.336;2023-12-28T15:16:30;13.90;99.90
83019;DHT22;72834;40.104;18.336;2023-12-28T15:18:57;13.90;99.90
83019;DHT22;72834;40.104;18.336;2023-12-28T15:21:24;13.80;99.90
83019;DHT22;72834;40.104;18.336;2023-12-28T15:23:50;13.90;99.90
83019;DHT22;72834;40.104;18.336;2023-12-28T15:26:17;13.80;99.90
83019;DHT22;72834;40.104;18.336;2023-12-28T15:28:47;13.80;99.90